METAR AND TAF INFORMATION
METAR FOR EGGP
ADDS - METARS form results

(2009 UTC 03 August 2021)
Data provider http://aviationweather.gov/metar/data/
 
METAR text: EGGP 031950Z 33006KT CAVOK 17/12 Q1012
Conditions at: EGGP (LIVERPOOL AIRPOR, GB) observed 1950 UTC 03 August 2021
Temperature: 17.0°C (63°F)
Dewpoint: 12.0°C (54°F) [RH = 72%]
Pressure (altimeter): 29.88 inches Hg (1012.0 mb)
Winds: from the NNW (330 degrees) at 7 MPH (6 knots; 3.1 m/s)
Visibility: 6 or more miles (10+ km)
Ceiling: ceiling and visibility are OK
Clouds: unknown
Weather: no significant weather observed at this time

METAR text: EGGP 031920Z AUTO 35007KT 9999 NCD 17/10 Q1012
Conditions at: EGGP (LIVERPOOL AIRPOR, GB) observed 1920 UTC 03 August 2021
Temperature: 17.0°C (63°F)
Dewpoint: 10.0°C (50°F) [RH = 63%]
Pressure (altimeter): 29.88 inches Hg (1012.0 mb)
Winds: from the N (350 degrees) at 8 MPH (7 knots; 3.6 m/s)
Visibility: 6 or more miles (10+ km)
Ceiling: at least 12,000 feet AGL
Clouds: sky clear below 12,000 feet AGL
Weather: no significant weather observed at this time

Forecast for: EGGP (LIVERPOOL AIRPOR, GB)
Text: TAF EGGP 031659Z 0318/0418 32006KT 9999 SCT020
Forecast period: 1800 UTC 03 August 2021 to 1800 UTC 04 August 2021
Forecast type: FROM: standard forecast or significant change
Winds: from the NW (320 degrees) at 7 MPH (6 knots; 3.1 m/s)
Visibility: 6 or more miles (10+ km)
Ceiling: at least 12,000 feet AGL
Clouds: scattered clouds at 2000 feet AGL
Weather: no significant weather forecast for this period
Text: PROB30 0402/0409 8000
Forecast period: 0200 to 0900 UTC 04 August 2021
Forecast type: PROBABLE: 30 percent likelihood of the following during this time
Visibility: 5 miles (8 km)
Ceiling: unknown
Clouds: missing
Weather: no significant weather forecast for this period
Text: TEMPO 0410/0418 6000 SHRA
Forecast period: 1000 to 1800 UTC 04 August 2021
Forecast type: TEMPORARY: The following changes expected for less than half the time period
Visibility: 4 miles (6 km)
Ceiling: unknown
Clouds: missing
Weather: SHRA  (rain showers)
Text: PROB30
Forecast period: 1000 to 1800 UTC 04 August 2021
Forecast type: TEMPORARY: The following changes expected for less than half the time period
Visibility: 2.49 miles (4.01 km)
Ceiling: unknown
Clouds: missing
Weather: +SHRA  (heavy rain showers)

 AIRPORT MAP

 RUNWAY INFORMATION
Runway 09 Runway length 7500 ft Runway width 151 ft
Runway elevation 59 ft Runway displaced threshold 200 ft Runway heading 86
Runway 27 Runway length 7500 ft Runway width 151 ft
Runway elevation 77 ft Runway displaced threshold 0 ft Runway heading 266

 AIRPORT FREQUENCIES
Type APP Name APP Frequency 119.85 MHZ
Type ATIS Name ATIS Frequency 124.325 MHZ
Type GND Name GND Frequency 121.95 MHZ
Type TWR Name TWR Frequency 126.35 MHZ

 AIRPORT NEAR NAVIGATION AIDS





Powered by Virtual Airlines Manager

Maps by Rafael Santos